createdAt,value
2018-03-25T00:01:25.217Z,29.97
2018-03-25T00:03:52.673Z,30.83
2018-03-25T00:06:20.128Z,30.23
2018-03-25T00:08:47.589Z,31.10
2018-03-25T00:11:15.054Z,29.93
2018-03-25T00:13:42.522Z,30.90
2018-03-25T00:16:09.973Z,30.20
2018-03-25T00:18:37.436Z,29.53
2018-03-25T00:21:04.902Z,29.43
2018-03-25T00:23:32.357Z,28.63
2018-03-25T00:25:59.822Z,32.37
2018-03-25T00:28:27.274Z,31.33
2018-03-25T00:30:54.730Z,30.60
2018-03-25T00:33:22.179Z,31.03
2018-03-25T00:35:49.642Z,29.17
2018-03-25T00:38:17.109Z,31.43
2018-03-25T00:40:45.329Z,28.80
2018-03-25T00:43:12.786Z,30.53
2018-03-25T00:45:40.240Z,30.73
2018-03-25T00:48:08.457Z,32.30
2018-03-25T00:50:35.917Z,33.07
2018-03-25T00:53:03.373Z,33.43
2018-03-25T00:55:30.828Z,32.63
2018-03-25T00:57:59.052Z,31.83
2018-03-25T01:00:26.509Z,32.03
2018-03-25T01:02:53.977Z,33.50
2018-03-25T01:05:21.434Z,28.63
2018-03-25T01:07:48.896Z,29.83
2018-03-25T01:10:16.356Z,32.70
2018-03-25T01:12:43.848Z,36.60
2018-03-25T01:15:11.285Z,33.07
2018-03-25T01:17:38.758Z,34.70
2018-03-25T01:20:06.213Z,33.63
2018-03-25T01:22:33.681Z,31.73
2018-03-25T01:25:01.905Z,35.27
2018-03-25T01:27:29.373Z,36.73
2018-03-25T01:29:57.619Z,32.53
2018-03-25T01:32:25.086Z,33.63
2018-03-25T01:34:52.545Z,32.80
2018-03-25T01:37:20.008Z,33.80
2018-03-25T01:39:47.461Z,33.80
2018-03-25T01:42:15.705Z,35.27
2018-03-25T01:44:43.165Z,36.97
2018-03-25T01:47:10.620Z,33.63
2018-03-25T01:49:38.087Z,34.73
2018-03-25T01:52:05.551Z,35.97
2018-03-25T01:54:33.009Z,32.70
2018-03-25T01:57:00.463Z,33.07
2018-03-25T01:59:27.925Z,32.73
2018-03-25T02:01:55.389Z,36.40
2018-03-25T02:04:22.845Z,33.83
2018-03-25T02:06:50.307Z,34.43
2018-03-25T02:09:17.762Z,34.83
2018-03-25T02:11:45.225Z,38.27
2018-03-25T02:14:12.684Z,33.33
2018-03-25T02:16:40.141Z,36.37
2018-03-25T02:19:07.601Z,38.50
2018-03-25T02:21:35.057Z,33.03
2018-03-25T02:24:02.518Z,34.40
2018-03-25T02:26:29.972Z,36.63
2018-03-25T02:28:57.432Z,34.87
2018-03-25T02:31:24.905Z,32.00
2018-03-25T02:33:53.134Z,37.90
2018-03-25T02:36:20.584Z,35.67
2018-03-25T02:38:48.041Z,36.47
2018-03-25T02:41:15.501Z,38.00
2018-03-25T02:43:42.960Z,36.53
2018-03-25T02:46:10.418Z,36.70
2018-03-25T02:48:37.868Z,36.50
2018-03-25T02:51:05.331Z,34.57
2018-03-25T02:53:32.806Z,34.27
2018-03-25T02:56:00.264Z,37.13
2018-03-25T02:58:27.741Z,39.20
2018-03-25T03:00:55.204Z,35.63
2018-03-25T03:03:23.437Z,39.00
2018-03-25T03:05:51.044Z,37.33
2018-03-25T03:08:19.278Z,35.20
2018-03-25T03:10:46.736Z,34.10
2018-03-25T03:13:14.210Z,36.10
2018-03-25T03:15:41.669Z,35.63
2018-03-25T03:18:09.132Z,38.57
2018-03-25T03:20:36.583Z,40.50
2018-03-25T03:23:04.047Z,39.20
2018-03-25T03:25:31.500Z,36.53
2018-03-25T03:27:58.970Z,34.37
2018-03-25T03:30:27.196Z,38.40
2018-03-25T03:32:54.668Z,35.50
2018-03-25T03:35:22.122Z,37.77
2018-03-25T03:37:49.589Z,40.23
2018-03-25T03:40:17.048Z,40.60
2018-03-25T03:42:44.504Z,38.80
2018-03-25T03:45:11.968Z,37.50
2018-03-25T03:47:39.436Z,35.33
2018-03-25T03:50:07.664Z,35.47
2018-03-25T03:52:35.112Z,34.40
2018-03-25T03:55:02.572Z,39.80
2018-03-25T03:57:30.029Z,35.43
2018-03-25T03:59:57.494Z,39.00
2018-03-25T04:02:24.940Z,33.43
2018-03-25T04:04:52.397Z,35.57
2018-03-25T04:07:19.852Z,36.00
2018-03-25T04:09:47.318Z,41.80
2018-03-25T04:12:14.776Z,33.70
2018-03-25T04:14:42.241Z,35.03
2018-03-25T04:17:09.706Z,36.37
2018-03-25T04:19:37.289Z,37.23
2018-03-25T04:22:05.509Z,35.10
2018-03-25T04:24:32.969Z,36.47
2018-03-25T04:27:00.419Z,36.70
2018-03-25T04:29:27.889Z,37.73
2018-03-25T04:31:55.339Z,36.17
2018-03-25T04:34:22.804Z,35.30
2018-03-25T04:36:51.038Z,37.93
2018-03-25T04:39:18.509Z,38.67
2018-03-25T04:41:45.974Z,36.40
2018-03-25T04:44:13.431Z,40.63
2018-03-25T04:46:40.889Z,41.30
2018-03-25T04:49:08.364Z,36.33
2018-03-25T04:51:35.821Z,34.90
2018-03-25T04:54:03.277Z,37.73
2018-03-25T04:56:30.732Z,37.47
2018-03-25T04:58:58.958Z,33.97
2018-03-25T05:01:27.184Z,37.10
2018-03-25T05:03:54.657Z,35.13
2018-03-25T05:06:22.108Z,37.33
2018-03-25T05:08:49.576Z,36.20
2018-03-25T05:11:17.036Z,33.67
2018-03-25T05:13:44.513Z,37.97
2018-03-25T05:16:12.740Z,32.93
2018-03-25T05:18:40.206Z,35.93
2018-03-25T05:21:07.661Z,34.73
2018-03-25T05:23:35.137Z,33.57
2018-03-25T05:26:02.596Z,34.57
2018-03-25T05:28:30.065Z,38.67
2018-03-25T05:30:58.308Z,30.17
2018-03-25T05:33:25.771Z,32.67
2018-03-25T05:35:53.224Z,37.30
2018-03-25T05:38:20.681Z,35.47
2018-03-25T05:40:48.136Z,34.27
2018-03-25T05:43:15.597Z,35.77
2018-03-25T05:45:43.061Z,36.63
2018-03-25T05:48:11.013Z,34.50
2018-03-25T05:50:38.467Z,40.27
2018-03-25T05:53:05.940Z,39.20
2018-03-25T05:55:33.418Z,34.30
2018-03-25T05:58:01.645Z,35.40
2018-03-25T06:00:29.109Z,35.20
2018-03-25T06:02:56.578Z,37.97
2018-03-25T06:05:25.544Z,35.67
2018-03-25T06:07:53.000Z,35.97
2018-03-25T06:10:20.460Z,35.27
2018-03-25T06:12:47.916Z,35.13
2018-03-25T06:15:15.382Z,34.00
2018-03-25T06:17:42.837Z,31.77
2018-03-25T06:20:10.324Z,33.73
2018-03-25T06:22:37.784Z,30.77
2018-03-25T06:25:06.004Z,33.10
2018-03-25T06:27:33.465Z,30.40
2018-03-25T06:30:00.919Z,34.23
2018-03-25T06:32:28.372Z,33.13
2018-03-25T06:34:55.823Z,32.83
2018-03-25T06:37:23.288Z,33.80
2018-03-25T06:39:50.748Z,35.67
2018-03-25T06:42:18.203Z,32.77
2018-03-25T06:44:45.729Z,34.00
2018-03-25T06:47:13.950Z,32.83
2018-03-25T06:49:41.409Z,33.73
2018-03-25T06:52:08.861Z,35.27
2018-03-25T06:54:36.324Z,33.80
2018-03-25T06:57:04.538Z,31.50
2018-03-25T06:59:32.756Z,33.83
2018-03-25T07:02:00.330Z,33.53
2018-03-25T07:04:27.757Z,33.00
2018-03-25T07:06:55.221Z,32.43
2018-03-25T07:09:22.669Z,35.13
2018-03-25T07:11:50.131Z,33.70
2018-03-25T07:14:17.582Z,34.27
2018-03-25T07:16:45.034Z,34.17
2018-03-25T07:19:12.485Z,33.37
2018-03-25T07:21:39.956Z,35.77
2018-03-25T07:24:07.413Z,31.90
2018-03-25T07:26:34.856Z,31.37
2018-03-25T07:29:02.456Z,31.03
2018-03-25T07:31:29.914Z,32.00
2018-03-25T07:33:58.225Z,30.97
2018-03-25T07:36:25.721Z,31.50
2018-03-25T07:38:53.196Z,27.93
2018-03-25T07:41:20.649Z,29.50
2018-03-25T07:43:48.095Z,26.67
2018-03-25T07:46:15.577Z,31.03
2018-03-25T07:48:43.036Z,26.20
2018-03-25T07:51:10.495Z,25.17
2018-03-25T07:53:37.953Z,28.77
2018-03-25T07:56:06.913Z,28.07
2018-03-25T07:58:34.364Z,28.00
2018-03-25T08:01:01.935Z,28.47
2018-03-25T08:03:29.388Z,28.33
2018-03-25T08:05:56.849Z,29.67
2018-03-25T08:08:24.302Z,31.10
2018-03-25T08:10:51.760Z,30.40
2018-03-25T08:13:19.204Z,27.60
2018-03-25T08:15:46.661Z,28.65
2018-03-25T08:18:14.881Z,31.25
2018-03-25T08:20:42.476Z,28.67
2018-03-25T08:23:09.937Z,32.03
2018-03-25T08:25:37.404Z,31.58
2018-03-25T08:28:04.886Z,33.08
2018-03-25T08:30:32.365Z,33.63
2018-03-25T08:32:59.821Z,30.45
2018-03-25T08:35:27.277Z,33.10
2018-03-25T08:37:54.734Z,33.25
2018-03-25T08:40:22.968Z,32.65
2018-03-25T08:42:50.425Z,31.70
2018-03-25T08:45:17.958Z,33.85
2018-03-25T08:47:45.433Z,33.25
2018-03-25T08:50:12.882Z,34.30
2018-03-25T08:52:40.341Z,34.05
2018-03-25T08:55:07.944Z,31.12
2018-03-25T08:57:35.415Z,32.70
2018-03-25T09:00:02.872Z,30.98
2018-03-25T09:02:30.326Z,32.22
2018-03-25T09:04:57.776Z,32.60
2018-03-25T09:07:25.241Z,29.90
2018-03-25T09:09:52.724Z,32.88
2018-03-25T09:12:20.217Z,33.60
2018-03-25T09:14:47.676Z,33.95
2018-03-25T09:17:15.138Z,31.67
2018-03-25T09:19:42.753Z,34.65
2018-03-25T09:22:10.274Z,34.17
2018-03-25T09:24:37.684Z,33.10
2018-03-25T09:27:05.168Z,34.88
2018-03-25T09:29:32.630Z,32.45
2018-03-25T09:32:00.856Z,34.88
2018-03-25T09:34:28.316Z,32.60
2018-03-25T09:36:55.774Z,32.25
2018-03-25T09:39:23.237Z,32.80
2018-03-25T09:41:50.713Z,32.80
2018-03-25T09:44:18.164Z,31.27
2018-03-25T09:46:45.622Z,30.17
2018-03-25T09:49:13.087Z,30.42
2018-03-25T09:51:41.320Z,32.63
2018-03-25T09:54:09.621Z,32.65
2018-03-25T09:56:37.137Z,31.33
2018-03-25T09:59:04.594Z,31.92
2018-03-25T10:01:34.651Z,31.30
2018-03-25T10:04:02.112Z,31.87
2018-03-25T10:06:29.574Z,32.17
2018-03-25T10:08:57.035Z,30.77
2018-03-25T10:11:24.564Z,31.12
2018-03-25T10:13:52.868Z,31.20
2018-03-25T10:16:20.331Z,28.48
2018-03-25T10:18:47.783Z,29.98
2018-03-25T10:21:15.242Z,31.08
2018-03-25T10:23:43.473Z,29.67
2018-03-25T10:26:11.693Z,29.87
2018-03-25T10:28:39.916Z,29.35
2018-03-25T10:31:08.142Z,31.25
2018-03-25T10:33:35.600Z,29.50
2018-03-25T10:36:03.058Z,28.58
2018-03-25T10:38:30.512Z,28.38
2018-03-25T10:40:57.981Z,29.45
2018-03-25T10:43:25.440Z,29.98
2018-03-25T10:45:52.898Z,30.77
2018-03-25T10:48:20.402Z,29.63
2018-03-25T10:50:47.876Z,30.98
2018-03-25T10:53:15.338Z,29.95
2018-03-25T10:55:42.798Z,27.30
2018-03-25T10:58:10.260Z,29.73
2018-03-25T11:00:37.724Z,26.70
2018-03-25T11:03:05.177Z,29.05
2018-03-25T11:05:32.636Z,27.37
2018-03-25T11:08:00.094Z,27.75
2018-03-25T11:10:27.611Z,26.12
2018-03-25T11:12:55.085Z,29.70
2018-03-25T11:15:22.555Z,30.05
2018-03-25T11:17:50.013Z,28.70
2018-03-25T11:20:17.467Z,34.75
2018-03-25T11:22:44.928Z,27.02
2018-03-25T11:25:12.384Z,27.87
2018-03-25T11:27:39.840Z,27.10
2018-03-25T11:30:07.300Z,28.23
2018-03-25T11:32:34.753Z,29.50
2018-03-25T11:35:02.218Z,28.93
2018-03-25T11:37:29.666Z,30.73
2018-03-25T11:39:57.128Z,30.97
2018-03-25T11:42:24.585Z,30.07
2018-03-25T11:44:52.040Z,27.50
2018-03-25T11:47:19.497Z,30.10
2018-03-25T11:49:46.961Z,30.37
2018-03-25T11:52:14.425Z,29.20
2018-03-25T11:54:41.900Z,28.23
2018-03-25T11:57:09.344Z,30.67
2018-03-25T11:59:36.813Z,30.03
2018-03-25T12:02:05.029Z,33.03
2018-03-25T12:04:32.485Z,29.80
2018-03-25T12:06:59.985Z,31.47
2018-03-25T12:09:27.402Z,26.73
2018-03-25T12:11:54.864Z,28.33
2018-03-25T12:14:22.320Z,27.53
2018-03-25T12:16:49.784Z,26.57
2018-03-25T12:19:17.240Z,29.20
2018-03-25T12:21:44.700Z,29.87
2018-03-25T12:24:12.173Z,28.37
2018-03-25T12:26:39.636Z,28.50
2018-03-25T12:29:07.146Z,29.53
2018-03-25T12:31:34.615Z,28.27
2018-03-25T12:34:02.198Z,25.97
2018-03-25T12:36:29.730Z,28.43
2018-03-25T12:38:57.180Z,29.37
2018-03-25T12:41:24.650Z,30.23
2018-03-25T12:43:52.113Z,27.67
2018-03-25T12:46:19.572Z,27.40
2018-03-25T12:48:47.030Z,26.70
2018-03-25T12:51:14.494Z,26.37
2018-03-25T12:53:42.766Z,27.57
2018-03-25T12:56:10.232Z,30.17
2018-03-25T12:58:37.697Z,28.33
2018-03-25T13:01:05.145Z,27.47
2018-03-25T13:03:32.595Z,28.53
2018-03-25T13:06:00.041Z,24.80
2018-03-25T13:08:27.504Z,29.30
2018-03-25T13:10:54.954Z,27.43
2018-03-25T13:13:22.412Z,29.00
2018-03-25T13:15:50.001Z,27.40
2018-03-25T13:18:17.403Z,26.53
2018-03-25T13:20:44.852Z,27.43
2018-03-25T13:23:12.309Z,28.93
2018-03-25T13:25:39.762Z,29.47
2018-03-25T13:28:07.233Z,27.97
2018-03-25T13:30:34.686Z,28.40
2018-03-25T13:33:02.189Z,29.30
2018-03-25T13:35:29.640Z,31.53
2018-03-25T13:37:57.095Z,30.20
2018-03-25T13:40:24.562Z,27.07
2018-03-25T13:42:52.017Z,26.50
2018-03-25T13:45:19.474Z,28.17
2018-03-25T13:47:46.928Z,26.43
2018-03-25T13:50:14.393Z,28.20
2018-03-25T13:52:41.840Z,30.23
2018-03-25T13:55:09.299Z,25.03
2018-03-25T13:57:36.771Z,27.27
2018-03-25T14:00:05.078Z,25.57
2018-03-25T14:02:32.582Z,28.63
2018-03-25T14:05:00.144Z,24.67
2018-03-25T14:07:27.594Z,29.87
2018-03-25T14:09:55.049Z,27.73
2018-03-25T14:12:22.497Z,29.07
2018-03-25T14:14:49.959Z,28.00
2018-03-25T14:17:17.416Z,27.10
2018-03-25T14:19:45.502Z,25.27
2018-03-25T14:22:12.955Z,25.43
2018-03-25T14:24:40.416Z,25.03
2018-03-25T14:27:07.877Z,25.87
2018-03-25T14:29:35.329Z,25.17
2018-03-25T14:32:02.850Z,26.47
2018-03-25T14:34:30.300Z,26.33
2018-03-25T14:36:57.782Z,26.73
2018-03-25T14:39:25.279Z,27.10
2018-03-25T14:41:52.757Z,27.40
2018-03-25T14:44:20.214Z,28.37
2018-03-25T14:46:47.741Z,27.77
2018-03-25T14:49:15.971Z,27.10
2018-03-25T14:51:43.459Z,26.17
2018-03-25T14:54:10.912Z,22.20
2018-03-25T14:56:38.363Z,27.33
2018-03-25T14:59:05.834Z,27.77
2018-03-25T15:01:33.279Z,28.13
2018-03-25T15:04:00.743Z,27.63
2018-03-25T15:06:28.192Z,25.77
2018-03-25T15:08:55.665Z,26.77
2018-03-25T15:11:23.888Z,25.77
2018-03-25T15:13:51.353Z,26.57
2018-03-25T15:16:18.819Z,26.43
2018-03-25T15:18:46.287Z,27.20
2018-03-25T15:21:13.753Z,28.03
2018-03-25T15:23:41.208Z,28.27
2018-03-25T15:26:08.696Z,30.47
2018-03-25T15:28:36.914Z,27.80
2018-03-25T15:31:04.388Z,27.43
2018-03-25T15:33:31.848Z,27.93
2018-03-25T15:35:59.305Z,27.43
2018-03-25T15:38:26.763Z,27.83
2018-03-25T15:40:54.235Z,25.40
2018-03-25T15:43:21.746Z,27.50
2018-03-25T15:45:49.196Z,25.97
2018-03-25T15:48:16.656Z,28.07
2018-03-25T15:50:44.135Z,26.27
2018-03-25T15:53:11.618Z,26.33
2018-03-25T15:55:39.846Z,26.57
2018-03-25T15:58:07.317Z,26.60
2018-03-25T16:00:34.774Z,24.73
2018-03-25T16:03:02.232Z,26.43
2018-03-25T16:05:29.717Z,27.47
2018-03-25T16:07:57.219Z,27.37
2018-03-25T16:10:24.673Z,24.90
2018-03-25T16:12:52.129Z,26.63
2018-03-25T16:15:20.348Z,26.60
2018-03-25T16:17:47.809Z,28.03
2018-03-25T16:20:15.269Z,28.30
2018-03-25T16:22:42.727Z,30.07
2018-03-25T16:25:10.184Z,28.30
2018-03-25T16:27:37.636Z,26.37
2018-03-25T16:30:05.088Z,27.23
2018-03-25T16:32:32.542Z,25.53
2018-03-25T16:34:59.999Z,26.50
2018-03-25T16:37:27.455Z,25.47
2018-03-25T16:39:54.951Z,26.27
2018-03-25T16:42:22.410Z,26.37
2018-03-25T16:44:49.872Z,24.80
2018-03-25T16:47:17.337Z,26.47
2018-03-25T16:49:44.801Z,25.07
2018-03-25T16:52:12.265Z,25.63
2018-03-25T16:54:39.715Z,28.60
2018-03-25T16:57:07.169Z,28.33
2018-03-25T16:59:34.620Z,27.97
2018-03-25T17:02:02.078Z,30.47
2018-03-25T17:04:29.547Z,27.43
2018-03-25T17:06:57.774Z,24.07
2018-03-25T17:09:25.993Z,24.97
2018-03-25T17:11:53.445Z,23.50
2018-03-25T17:14:20.902Z,25.33
2018-03-25T17:16:48.357Z,27.33
2018-03-25T17:19:15.821Z,27.40
2018-03-25T17:21:43.279Z,25.00
2018-03-25T17:24:10.733Z,27.87
2018-03-25T17:26:38.197Z,25.30
2018-03-25T17:29:05.652Z,26.53
2018-03-25T17:31:33.165Z,26.50
2018-03-25T17:34:00.568Z,27.13
2018-03-25T17:36:28.043Z,25.93
2018-03-25T17:38:55.498Z,29.37
2018-03-25T17:41:22.957Z,30.43
2018-03-25T17:43:51.265Z,28.47
2018-03-25T17:46:19.481Z,30.30
2018-03-25T17:48:46.954Z,31.50
2018-03-25T17:51:14.423Z,29.57
2018-03-25T17:53:41.892Z,33.67
2018-03-25T17:56:09.358Z,31.43
2018-03-25T17:58:37.573Z,28.93
2018-03-25T18:01:05.072Z,32.20
2018-03-25T18:03:32.542Z,35.20
2018-03-25T18:06:00.773Z,34.13
2018-03-25T18:08:28.236Z,34.20
2018-03-25T18:10:55.699Z,35.90
2018-03-25T18:13:23.151Z,33.57
2018-03-25T18:15:50.611Z,32.57
2018-03-25T18:18:18.071Z,32.80
2018-03-25T18:20:56.291Z,32.93
2018-03-25T18:23:13.109Z,32.23
2018-03-25T18:25:40.566Z,32.60
2018-03-25T18:28:08.017Z,30.63
2018-03-25T18:30:35.554Z,35.90
2018-03-25T18:33:03.460Z,29.70
2018-03-25T18:35:31.728Z,30.60
2018-03-25T18:37:59.985Z,43.03
2018-03-25T18:40:27.900Z,39.13
2018-03-25T18:42:55.349Z,64.10
2018-03-25T18:45:22.819Z,42.63
2018-03-25T18:47:50.276Z,38.03
2018-03-25T18:50:17.797Z,41.97
2018-03-25T18:52:46.025Z,24.27
2018-03-25T18:55:13.477Z,19.67
2018-03-25T18:57:40.934Z,22.43
2018-03-25T19:00:08.397Z,25.00
2018-03-25T19:02:35.877Z,26.30
2018-03-25T19:05:03.341Z,33.20
2018-03-25T19:07:30.789Z,35.27
2018-03-25T19:09:58.318Z,39.90
2018-03-25T19:12:26.490Z,38.37
2018-03-25T19:14:53.944Z,47.23
2018-03-25T19:17:21.399Z,35.93
2018-03-25T19:19:48.849Z,32.63
2018-03-25T19:22:16.308Z,31.77
2018-03-25T19:24:43.777Z,29.40
2018-03-25T19:27:11.231Z,30.57
2018-03-25T19:29:38.683Z,34.73
2018-03-25T19:32:06.204Z,26.67
2018-03-25T19:34:33.612Z,24.27
2018-03-25T19:37:01.083Z,25.63
2018-03-25T19:39:28.534Z,24.90
2018-03-25T19:41:55.991Z,26.33
2018-03-25T19:44:23.445Z,27.10
2018-03-25T19:46:51.613Z,26.27
2018-03-25T19:49:19.101Z,31.63
2018-03-25T19:51:46.557Z,28.67
2018-03-25T19:54:14.781Z,24.90
2018-03-25T19:56:42.241Z,25.67
2018-03-25T19:59:09.692Z,24.93
2018-03-25T20:01:37.144Z,26.20
2018-03-25T20:04:04.597Z,21.13
2018-03-25T20:06:32.062Z,24.47
2018-03-25T20:08:59.556Z,24.67
2018-03-25T20:11:26.999Z,22.60
2018-03-25T20:13:54.448Z,24.57
2018-03-25T20:16:21.940Z,24.27
2018-03-25T20:18:49.422Z,22.73
2018-03-25T20:21:16.884Z,24.17
2018-03-25T20:23:44.955Z,23.33
2018-03-25T20:26:12.426Z,24.40
2018-03-25T20:28:39.880Z,21.17
2018-03-25T20:31:07.337Z,20.60
2018-03-25T20:33:34.806Z,22.60
2018-03-25T20:36:02.271Z,23.60
2018-03-25T20:38:29.716Z,22.10
2018-03-25T20:40:57.163Z,21.03
2018-03-25T20:43:24.622Z,24.00
2018-03-25T20:45:52.084Z,23.20
2018-03-25T20:48:19.551Z,20.53
2018-03-25T20:50:47.009Z,23.33
2018-03-25T20:53:14.462Z,22.63
2018-03-25T20:55:41.917Z,27.57
2018-03-25T20:58:09.377Z,26.33
2018-03-25T21:00:36.829Z,30.73
2018-03-25T21:03:05.056Z,34.67
2018-03-25T21:05:34.182Z,27.67
2018-03-25T21:08:01.641Z,26.60
2018-03-25T21:10:29.098Z,27.80
2018-03-25T21:12:56.553Z,26.77
2018-03-25T21:15:24.009Z,27.07
2018-03-25T21:17:51.459Z,25.03
2018-03-25T21:20:18.917Z,23.50
2018-03-25T21:22:46.357Z,29.57
2018-03-25T21:25:13.806Z,37.23
2018-03-25T21:27:42.029Z,39.40
2018-03-25T21:30:09.485Z,33.67
2018-03-25T21:32:36.932Z,31.33
2018-03-25T21:35:04.401Z,28.83
2018-03-25T21:37:31.853Z,27.80
2018-03-25T21:39:59.308Z,26.87
2018-03-25T21:42:26.755Z,21.67
2018-03-25T21:44:54.228Z,27.97
2018-03-25T21:47:21.672Z,21.93
2018-03-25T21:49:49.125Z,23.40
2018-03-25T21:52:16.585Z,19.77
2018-03-25T21:54:44.040Z,25.40
2018-03-25T21:57:11.493Z,23.17
2018-03-25T21:59:38.944Z,25.43
2018-03-25T22:02:06.391Z,22.93
2018-03-25T22:04:33.845Z,24.07
2018-03-25T22:07:01.293Z,25.13
2018-03-25T22:09:28.740Z,20.50
2018-03-25T22:11:56.189Z,23.07
2018-03-25T22:14:24.425Z,24.43
2018-03-25T22:16:52.657Z,24.60
2018-03-25T22:19:20.104Z,23.40
2018-03-25T22:21:47.568Z,28.73
2018-03-25T22:24:15.012Z,21.00
2018-03-25T22:26:42.477Z,24.60
2018-03-25T22:29:09.928Z,24.90
2018-03-25T22:31:37.384Z,28.83
2018-03-25T22:34:04.836Z,26.20
2018-03-25T22:36:33.054Z,25.83
2018-03-25T22:39:00.502Z,25.50
2018-03-25T22:41:27.950Z,27.17
2018-03-25T22:43:55.410Z,30.73
2018-03-25T22:46:22.869Z,46.57
2018-03-25T22:48:50.329Z,30.20
2018-03-25T22:51:17.780Z,28.87
2018-03-25T22:53:45.246Z,24.93
2018-03-25T22:56:12.701Z,27.40
2018-03-25T22:58:40.159Z,24.33
2018-03-25T23:01:07.618Z,25.03
2018-03-25T23:03:35.073Z,22.53
2018-03-25T23:06:02.526Z,25.93
2018-03-25T23:08:29.973Z,26.70
2018-03-25T23:10:57.421Z,25.30
2018-03-25T23:13:24.870Z,24.10
2018-03-25T23:15:52.320Z,27.43
2018-03-25T23:18:19.776Z,26.53
2018-03-25T23:20:47.239Z,25.60
2018-03-25T23:23:14.687Z,23.20
2018-03-25T23:25:42.185Z,24.43
2018-03-25T23:28:09.596Z,24.63
2018-03-25T23:30:37.056Z,28.33
2018-03-25T23:33:04.504Z,27.23
2018-03-25T23:35:32.753Z,26.27
2018-03-25T23:38:00.200Z,27.60
2018-03-25T23:40:27.640Z,29.10
2018-03-25T23:42:55.088Z,27.13
2018-03-25T23:45:22.532Z,30.57
2018-03-25T23:47:49.988Z,32.03
2018-03-25T23:50:17.436Z,28.07
2018-03-25T23:52:44.892Z,27.97
2018-03-25T23:55:12.348Z,29.63
2018-03-25T23:57:39.809Z,30.13
